Milbank, South Dakota
Current Conditions -  °F | °C
As of 5:34 PM on Wednesday 22 Oct 2014 (Local Time) from KVVV Reporting Station
Heavy Rain Heavy Rain  
Wind Chill: 61°   Ceiling: 4400
Heat Index: 61°   Visibility: 7mi
Dew Point: 55°   Wind: 3mph
Humidity: 82%   Direction: 240°WSW
Pressure: 29.9"   Gusts: NA
Location:  45.22°N, 96.63°W
Report Text: KVVV 222234Z AUTO 24003KT 7SM +RA SCT027 BKN044 OVC050 16/13 A2990 RMK AO2 P0003
Loading
Personal Weather Stations






























Interactive Weather Map New forecast layout! Learn more

10-Day Weather Forecast

Advertisements
Track Severe Weather on mobile